Time;durP1;ratioP1;P1;durP2;ratioP2;P2;SDS_P1;SDS_P2;PMS_P1;PMS_P2;Temp;Humidity;BMP_temperature;BMP_pressure;BME280_temperature;BME280_humidity;BME280_pressure;Samples;Min_cycle;Max_cycle;Signal;HPM_P1;HPM_P2
2022/04/22 00:02:21;;;;;;;4.43;1.83;;;13.60;99.90;;;;;;20954050;28;20270;-68
2022/04/22 00:12:22;;;;;;;2.13;1.37;;;;;;;;;;20954670;28;20213;-69
2022/04/22 00:22:25;;;;;;;2.03;1.20;;;;;;;;;;20968610;28;20621;-69
2022/04/22 00:32:26;;;;;;;2.50;1.23;;;;;;;;;;20949969;28;20209;-67
2022/04/22 00:42:28;;;;;;;2.30;1.13;;;;;;;;;;20982923;28;20263;-67
2022/04/22 00:52:30;;;;;;;1.50;1.10;;;13.00;99.90;;;;;;20949744;28;20663;-67
2022/04/22 01:02:32;;;;;;;2.00;1.10;;;;;;;;;;20983843;28;20221;-68
2022/04/22 01:12:34;;;;;;;1.80;1.13;;;;;;;;;;20949129;28;20549;-67
2022/04/22 01:22:36;;;;;;;1.37;1.03;;;;;;;;;;20930222;28;20263;-67
2022/04/22 01:32:38;;;;;;;2.27;1.47;;;;;;;;;;20929632;28;20213;-67
2022/04/22 01:42:40;;;;;;;1.73;1.30;;;12.30;99.90;;;;;;20927477;28;20244;-67
2022/04/22 01:52:43;;;;;;;1.60;1.00;;;12.50;99.90;;;;;;20960565;28;20212;-67
2022/04/22 02:02:45;;;;;;;1.73;0.97;;;12.30;99.90;;;;;;20927312;28;20250;-67
2022/04/22 02:12:47;;;;;;;2.13;1.30;;;;;;;;;;20942876;28;20271;-67
2022/04/22 02:22:48;;;;;;;2.10;1.00;;;;;;;;;;20942708;28;20217;-67
2022/04/22 02:32:51;;;;;;;1.93;1.07;;;;;;;;;;20960112;28;20197;-67
2022/04/22 02:53:13;;;;;;;2.27;1.43;;;;;;;;;;20941843;28;20761;-67
2022/04/22 03:03:15;;;;;;;2.43;1.57;;;;;;;;;;20939433;28;20555;-67
2022/04/22 03:13:16;;;;;;;3.07;1.80;;;;;;;;;;20955829;28;20216;-67
2022/04/22 03:23:18;;;;;;;3.67;1.97;;;;;;;;;;20938615;28;20221;-67
2022/04/22 03:33:20;;;;;;;2.93;1.93;;;;;;;;;;20938795;28;20749;-67
2022/04/22 03:43:25;;;;;;;3.40;2.23;;;;;;;;;;20971270;28;20213;-67
2022/04/22 03:53:27;;;;;;;3.57;1.70;;;;;;;;;;20955363;28;20279;-67
2022/04/22 04:03:29;;;;;;;4.60;2.93;;;;;;;;;;20949313;28;20255;-67
2022/04/22 04:23:52;;;;;;;7.73;2.80;;;;;;;;;;21002055;28;20217;-67
2022/04/22 04:33:54;;;;;;;3.43;2.27;;;;;;;;;;20936354;28;20213;-67
2022/04/22 04:43:55;;;;;;;2.90;1.77;;;;;;;;;;20951320;28;20258;-67
2022/04/22 04:53:57;;;;;;;4.43;2.40;;;;;;;;;;20950444;28;20209;-67
2022/04/22 05:04:00;;;;;;;5.27;2.73;;;11.30;99.90;;;;;;20949713;28;20252;-67
2022/04/22 05:14:03;;;;;;;4.77;2.57;;;;;;;;;;20965174;28;20221;-67
2022/04/22 05:24:06;;;;;;;3.93;2.63;;;11.20;99.90;;;;;;20947481;28;20251;-68
2022/04/22 05:34:08;;;;;;;4.03;2.37;;;;;;;;;;20962550;28;20591;-68
2022/04/22 05:44:10;;;;;;;4.90;2.80;;;;;;;;;;20961609;28;20225;-67
2022/04/22 05:54:12;;;;;;;4.53;2.60;;;;;;;;;;20944935;28;20492;-67
2022/04/22 06:04:14;;;;;;;4.53;2.27;;;;;;;;;;20960451;28;20243;-67
2022/04/22 06:14:16;;;;;;;4.37;2.50;;;;;;;;;;20943518;28;20269;-67
2022/04/22 06:24:17;;;;;;;4.50;2.87;;;;;;;;;;20942389;28;20243;-67
2022/04/22 06:34:19;;;;;;;4.67;2.93;;;;;;;;;;20958269;28;20764;-67
2022/04/22 06:54:31;;;;;;;5.50;3.10;;;;;;;;;;20957730;28;20578;-67
2022/04/22 07:04:33;;;;;;;4.10;2.80;;;13.00;99.90;;;;;;20940240;28;20283;-67
2022/04/22 07:14:35;;;;;;;4.67;3.20;;;;;;;;;;20937902;22;20240;-68
2022/04/22 07:24:37;;;;;;;6.13;3.93;;;13.60;99.90;;;;;;20921757;28;20282;-68
2022/04/22 07:34:39;;;;;;;4.30;2.60;;;;;;;;;;20943749;28;20197;-66
2022/04/22 07:55:06;;;;;;;5.33;3.20;;;13.70;99.90;;;;;;20986669;28;20544;-66
2022/04/22 08:05:10;;;;;;;6.30;2.93;;;14.30;99.90;;;;;;20968216;28;20217;-66
2022/04/22 08:15:12;;;;;;;5.87;3.40;;;;;;;;;;20951347;28;20278;-66
2022/04/22 08:25:14;;;;;;;4.30;3.13;;;;;;;;;;20950508;28;20232;-67
2022/04/22 08:35:16;;;;;;;4.87;3.10;;;;;;;;;;20966815;28;20278;-66
2022/04/22 08:45:19;;;;;;;4.47;3.40;;;;;;;;;;20980489;28;20703;-67
2022/04/22 08:55:22;;;;;;;5.10;2.93;;;;;;;;;;20932441;28;20208;-66
2022/04/22 09:05:27;;;;;;;4.13;2.87;;;16.10;99.90;;;;;;20964951;28;20221;-67
2022/04/22 09:15:34;;;;;;;4.93;3.10;;;;;;;;;;20963399;28;20225;-67
2022/04/22 09:25:41;;;;;;;3.77;3.00;;;16.50;99.90;;;;;;20946221;28;20286;-67
2022/04/22 09:46:04;;;;;;;4.03;2.70;;;16.80;99.90;;;;;;20947061;28;20769;-67
2022/04/22 09:56:08;;;;;;;3.37;2.87;;;17.10;99.90;;;;;;20960250;28;20282;-67
2022/04/22 10:06:11;;;;;;;21.63;8.80;;;17.60;99.90;;;;;;20959075;28;20583;-66
2022/04/22 10:16:14;;;;;;;3.67;2.43;;;;;;;;;;20940765;28;20237;-66
2022/04/22 10:26:16;;;;;;;3.30;2.60;;;;;;;;;;20957127;28;20374;-66
2022/04/22 10:36:19;;;;;;;3.90;2.00;;;18.40;99.90;;;;;;20940325;28;20201;-66
2022/04/22 10:56:44;;;;;;;3.07;2.17;;;;;;;;;;20974501;28;20271;-66
2022/04/22 11:06:46;;;;;;;3.70;2.40;;;19.10;99.90;;;;;;20939514;28;20243;-66
2022/04/22 11:16:48;;;;;;;3.23;1.80;;;;;;;;;;20921882;28;20266;-66
2022/04/22 11:26:52;;;;;;;3.07;2.03;;;;;;;;;;20937886;28;20302;-66
2022/04/22 11:36:54;;;;;;;2.07;1.60;;;;;;;;;;20921468;28;20205;-66
2022/04/22 11:47:00;;;;;;;3.40;2.20;;;20.10;99.90;;;;;;20937468;28;20236;-66
2022/04/22 11:57:03;;;;;;;4.13;2.30;;;20.30;99.90;;;;;;20953369;28;20205;-66
2022/04/22 12:17:31;;;;;;;4.50;1.80;;;;;;;;;;20952063;28;20248;-66
2022/04/22 12:27:33;;;;;;;2.00;1.57;;;;;;;;;;20933193;28;20230;-66
2022/04/22 12:37:36;;;;;;;3.33;1.90;;;;;;;;;;20965597;28;20286;-67
2022/04/22 12:58:07;;;;;;;3.60;1.23;;;;;;;;;;20965000;28;20218;-67
2022/04/22 13:08:10;;;;;;;3.53;1.30;;;21.30;98.40;;;;;;20931360;28;20219;-66
2022/04/22 13:18:12;;;;;;;2.20;1.50;;;;;;;;;;20960402;22;20226;-72
2022/04/22 13:28:14;;;;;;;3.30;1.67;;;;;;;;;;20993857;28;20244;-73
2022/04/22 13:38:17;;;;;;;2.00;1.23;;;;;;;;;;20991858;28;20204;-74
2022/04/22 13:58:39;;;;;;;1.37;0.90;;;;;;;;;;20992454;28;20216;-73
2022/04/22 14:08:41;;;;;;;2.90;1.07;;;;;;;;;;20990715;28;20270;-73
2022/04/22 14:18:44;;;;;;;1.83;1.13;;;21.00;92.40;;;;;;20990440;28;20699;-73
2022/04/22 14:28:46;;;;;;;2.50;1.23;;;21.80;95.30;;;;;;20989813;28;20223;-73
2022/04/22 14:38:48;;;;;;;1.57;1.00;;;;;;;;;;20986946;28;20762;-73
2022/04/22 14:48:50;;;;;;;1.50;1.00;;;;;;;;;;20952640;28;20212;-73
2022/04/22 14:58:52;;;;;;;3.13;1.00;;;;;;;;;;20987779;28;20203;-73
2022/04/22 15:08:54;;;;;;;2.37;1.00;;;;;;;;;;20987605;28;20272;-73
2022/04/22 15:29:19;;;;;;;2.47;1.20;;;;;;;;;;20987808;28;20689;-73
2022/04/22 15:39:20;;;;;;;1.30;1.00;;;;;;;;;;20985397;28;20580;-73
2022/04/22 15:49:22;;;;;;;1.87;1.27;;;;;;;;;;20985831;28;20203;-73
2022/04/22 15:59:24;;;;;;;1.40;0.97;;;;;;;;;;20995734;28;20202;-73
2022/04/22 16:09:26;;;;;;;2.33;0.90;;;;;;;;;;20983894;28;20584;-73
2022/04/22 16:19:31;;;;;;;1.00;0.70;;;20.60;86.70;;;;;;20999398;28;20237;-73
2022/04/22 16:29:32;;;;;;;1.87;0.93;;;;;;;;;;20990728;28;20276;-74
2022/04/22 16:39:34;;;;;;;0.83;0.73;;;;;;;;;;21035124;28;20216;-72
2022/04/22 16:49:36;;;;;;;1.70;1.13;;;;;;;;;;21028949;28;20643;-72
2022/04/22 16:59:37;;;;;;;2.80;1.00;;;;;;;;;;21058421;28;20215;-72
2022/04/22 17:09:39;;;;;;;1.10;0.80;;;;;;;;;;21051370;28;20283;-73
2022/04/22 17:30:02;;;;;;;1.60;1.00;;;;;;;;;;20969995;28;20241;-73
2022/04/22 17:40:04;;;;;;;1.33;0.90;;;19.90;99.20;;;;;;20918920;28;20210;-72
2022/04/22 17:50:06;;;;;;;2.17;1.03;;;19.50;95.50;;;;;;20997804;28;20239;-73
2022/04/22 18:00:08;;;;;;;1.40;0.90;;;19.40;94.00;;;;;;20987382;28;20215;-73
2022/04/22 18:10:10;;;;;;;1.70;0.97;;;;;;;;;;21002592;28;20217;-73
2022/04/22 18:20:12;;;;;;;2.10;1.07;;;;;;;;;;20997115;28;20235;-72
2022/04/22 18:30:14;;;;;;;1.97;1.20;;;;;;;;;;21015335;28;20217;-72
2022/04/22 18:40:15;;;;;;;1.50;1.03;;;;;;;;;;20997630;28;20212;-73
2022/04/22 18:50:17;;;;;;;2.47;1.50;;;;;;;;;;20979816;28;20266;-72
2022/04/22 19:00:20;;;;;;;4.23;1.30;;;;;;;;;;20946936;28;20262;-74
2022/04/22 19:10:23;;;;;;;1.90;1.23;;;;;;;;;;20895299;28;20213;-73
2022/04/22 19:20:25;;;;;;;2.90;1.60;;;;;;;;;;20948368;22;20246;-68
2022/04/22 19:30:27;;;;;;;1.90;1.37;;;18.30;97.50;;;;;;21045758;28;20225;-68
2022/04/22 19:50:53;;;;;;;2.10;1.47;;;;;;;;;;20976250;28;20225;-69
2022/04/22 20:00:56;;;;;;;4.13;1.20;;;;;;;;;;20997942;28;20216;-68
2022/04/22 20:10:59;;;;;;;1.77;1.10;;;;;;;;;;20999371;28;20281;-68
2022/04/22 20:21:00;;;;;;;4.00;1.33;;;;;;;;;;20990239;28;20224;-69
2022/04/22 20:31:02;;;;;;;1.27;1.00;;;;;;;;;;21039163;28;20209;-69
2022/04/22 20:41:04;;;;;;;2.30;1.27;;;;;;;;;;21004016;28;20708;-69
2022/04/22 20:51:07;;;;;;;2.07;1.30;;;;;;;;;;21020007;28;20270;-69
2022/04/22 21:01:09;;;;;;;1.83;1.20;;;;;;;;;;21019545;28;20286;-69
2022/04/22 21:11:11;;;;;;;2.23;1.50;;;;;;;;;;21035133;28;20301;-68
2022/04/22 21:21:14;;;;;;;2.07;1.47;;;;;;;;;;21051299;28;20251;-69
2022/04/22 21:31:16;;;;;;;2.80;1.87;;;;;;;;;;21017100;28;20251;-69
2022/04/22 21:41:18;;;;;;;2.37;1.77;;;;;;;;;;21036284;28;20598;-69
2022/04/22 21:51:20;;;;;;;2.67;1.70;;;;;;;;;;21027354;28;20637;-69
2022/04/22 22:01:22;;;;;;;6.23;1.93;;;;;;;;;;21043617;28;20250;-69
2022/04/22 22:11:24;;;;;;;2.47;1.50;;;;;;;;;;21042901;28;20212;-69
2022/04/22 22:21:27;;;;;;;2.90;2.00;;;;;;;;;;21041289;28;20270;-69
2022/04/22 22:31:28;;;;;;;2.33;1.50;;;;;;;;;;21041559;28;20247;-69
2022/04/22 22:41:32;;;;;;;2.93;1.70;;;;;;;;;;21024989;28;20201;-69
2022/04/22 22:51:33;;;;;;;2.23;1.70;;;;;;;;;;20996854;28;20224;-69
2022/04/22 23:01:36;;;;;;;2.83;1.83;;;;;;;;;;20997875;28;20686;-69
2022/04/22 23:11:38;;;;;;;2.33;1.60;;;;;;;;;;21005281;28;20224;-69
2022/04/22 23:21:40;;;;;;;2.90;2.13;;;;;;;;;;21037977;28;20219;-69
2022/04/22 23:31:42;;;;;;;2.70;1.90;;;;;;;;;;21021613;28;20243;-69
2022/04/22 23:41:44;;;;;;;3.17;2.10;;;16.80;99.90;;;;;;21037744;28;20205;-69
2022/04/22 23:51:47;;;;;;;4.17;3.00;;;;;;;;;;21052920;28;20225;-69
